Time;durP1;ratioP1;P1;durP2;ratioP2;P2;SDS_P1;SDS_P2;PMS_P1;PMS_P2;Temp;Humidity;BMP_temperature;BMP_pressure;BME280_temperature;BME280_humidity;BME280_pressure;Samples;Min_cycle;Max_cycle;Signal;HPM_P1;HPM_P2
2022/04/13 00:01:17;;;;;;;;;;;;;;;18.74;42.11;100122.66;4989931;28;6863;-74
2022/04/13 00:03:43;;;;;;;;;;;;;;;18.76;42.31;100120.09;4954813;28;7028;-74
2022/04/13 00:06:09;;;;;;;;;;;;;;;18.78;42.37;100118.38;5006781;28;7238;-74
2022/04/13 00:08:35;;;;;;;;;;;;;;;18.79;42.25;100125.31;4991860;28;6808;-74
2022/04/13 00:11:01;;;;;;;;;;;;;;;18.79;42.39;100114.94;4990433;28;6929;-74
2022/04/13 00:13:27;;;;;;;;;;;;;;;18.79;42.47;100114.94;4988253;28;6776;-74
2022/04/13 00:15:53;;;;;;;;;;;;;;;18.78;42.10;100115.78;4974456;28;6796;-74
2022/04/13 00:18:19;;;;;;;;;;;;;;;18.77;42.07;100119.25;4985630;28;7217;-74
2022/04/13 00:20:48;;;;;;;;;;;;;;;18.76;42.11;100122.69;4992874;28;6792;-74
2022/04/13 00:23:13;;;;;;;;;;;;;;;18.74;42.42;100118.38;4955874;28;7054;-74
2022/04/13 00:25:41;;;;;;;;;;;;;;;18.74;41.97;100123.56;5006156;28;6887;-74
2022/04/13 00:28:09;;;;;;;;;;;;;;;18.74;41.92;100126.16;4975308;28;7065;-74
2022/04/13 00:30:38;;;;;;;;;;;;;;;18.73;42.02;100126.13;4992053;28;7959;-74
2022/04/13 00:33:04;;;;;;;;;;;;;;;18.72;41.69;100135.63;4993181;28;6887;-74
2022/04/13 00:35:30;;;;;;;;;;;;;;;18.71;41.66;100127.84;5004556;28;7132;-74
2022/04/13 00:37:57;;;;;;;;;;;;;;;18.67;41.60;100126.94;4992191;28;7193;-74
2022/04/13 00:40:24;;;;;;;;;;;;;;;18.66;41.58;100134.69;4990777;28;7010;-74
2022/04/13 00:42:49;;;;;;;;;;;;;;;18.62;41.64;100141.56;4989638;28;6867;-74
2022/04/13 00:45:15;;;;;;;;;;;;;;;18.59;41.90;100144.16;4968377;28;8303;-74
2022/04/13 00:47:41;;;;;;;;;;;;;;;18.57;42.38;100144.13;4992555;28;6791;-74
2022/04/13 00:50:09;;;;;;;;;;;;;;;18.56;41.91;100149.31;4986900;28;6784;-74
2022/04/13 00:52:41;;;;;;;;;;;;;;;18.55;41.92;100147.56;4991869;28;7153;-74
2022/04/13 00:55:09;;;;;;;;;;;;;;;18.55;42.10;100147.56;4974134;28;6808;-74
2022/04/13 00:57:37;;;;;;;;;;;;;;;18.52;41.75;100142.34;5005800;28;6879;-74
2022/04/13 01:00:09;;;;;;;;;;;;;;;18.51;42.21;100150.97;4990752;28;8563;-74
2022/04/13 01:02:42;;;;;;;;;;;;;;;18.50;41.97;100144.03;4991679;28;6815;-74
2022/04/13 01:05:10;;;;;;;;;;;;;;;18.48;41.96;100150.94;4991169;28;7298;-74
2022/04/13 01:07:35;;;;;;;;;;;;;;;18.45;41.63;100147.47;4990417;28;6819;-74
2022/04/13 01:10:06;;;;;;;;;;;;;;;18.43;41.71;100143.97;4991511;28;6776;-73
2022/04/13 01:12:40;;;;;;;;;;;;;;;18.42;41.92;100152.59;4988706;28;6820;-73
2022/04/13 01:15:06;;;;;;;;;;;;;;;18.42;41.94;100164.72;4974106;28;6879;-73
2022/04/13 01:17:33;;;;;;;;;;;;;;;18.37;41.83;100164.66;4989628;28;6808;-73
2022/04/13 01:20:01;;;;;;;;;;;;;;;18.36;41.67;100172.41;4992341;28;7010;-73
2022/04/13 01:22:30;;;;;;;;;;;;;;;18.34;41.99;100164.59;4977322;28;6974;-73
2022/04/13 01:24:55;;;;;;;;;;;;;;;18.31;41.95;100159.41;4958450;28;7101;-73
2022/04/13 01:27:21;;;;;;;;;;;;;;;18.29;41.91;100166.28;4994118;28;6954;-73
2022/04/13 01:29:54;;;;;;;;;;;;;;;18.25;42.18;100164.50;4992712;28;6914;-73
2022/04/13 01:32:20;;;;;;;;;;;;;;;18.18;42.32;100163.56;4991700;28;6993;-73
2022/04/13 01:34:52;;;;;;;;;;;;;;;18.15;42.50;100174.75;4992199;28;7093;-73
2022/04/13 01:37:19;;;;;;;;;;;;;;;18.12;42.33;100177.31;4990506;28;6962;-73
2022/04/13 01:39:45;;;;;;;;;;;;;;;18.10;42.18;100181.63;4974809;28;7041;-74
2022/04/13 01:42:11;;;;;;;;;;;;;;;18.10;42.75;100189.41;4989669;28;6800;-74
2022/04/13 01:44:36;;;;;;;;;;;;;;;18.10;42.66;100185.91;4975925;28;6804;-74
2022/04/13 01:47:02;;;;;;;;;;;;;;;18.09;42.55;100179.00;4990044;28;7985;-74
2022/04/13 01:49:28;;;;;;;;;;;;;;;18.11;42.52;100188.53;4989251;28;6823;-74
2022/04/13 01:51:54;;;;;;;;;;;;;;;18.10;42.54;100185.91;4988085;28;6963;-74
2022/04/13 01:54:21;;;;;;;;;;;;;;;18.11;42.37;100193.72;4991380;28;6807;-74
2022/04/13 01:56:47;;;;;;;;;;;;;;;18.12;42.51;100199.81;4971587;28;6790;-74
2022/04/13 01:59:13;;;;;;;;;;;;;;;18.11;42.48;100198.91;5005227;28;6792;-74
2022/04/13 02:01:45;;;;;;;;;;;;;;;18.11;42.72;100209.28;4989370;28;7098;-74
2022/04/13 02:04:25;;;;;;;;;;;;;;;18.10;42.64;100206.66;4989931;28;7151;-74
2022/04/13 02:06:51;;;;;;;;;;;;;;;18.07;42.74;100204.91;4971941;28;6965;-74
2022/04/13 02:09:18;;;;;;;;;;;;;;;18.06;43.15;100210.06;4992981;28;6807;-74
2022/04/13 02:11:46;;;;;;;;;;;;;;;18.01;43.17;100209.97;4990023;28;7309;-74
2022/04/13 02:14:21;;;;;;;;;;;;;;;17.97;42.90;100210.78;4990697;28;7166;-74
2022/04/13 02:16:47;;;;;;;;;;;;;;;17.93;43.48;100209.00;4990273;28;6883;-74
2022/04/13 02:19:12;;;;;;;;;;;;;;;17.91;43.14;100212.44;4988693;28;6966;-74
2022/04/13 02:21:39;;;;;;;;;;;;;;;17.90;42.96;100215.00;4987725;28;6796;-74
2022/04/13 02:24:05;;;;;;;;;;;;;;;17.89;43.48;100215.84;4990931;28;6804;-74
2022/04/13 02:26:31;;;;;;;;;;;;;;;17.89;43.33;100224.50;4991451;28;7196;-74
2022/04/13 02:28:57;;;;;;;;;;;;;;;17.93;43.37;100227.13;4992309;28;6875;-74
2022/04/13 02:31:22;;;;;;;;;;;;;;;17.96;43.20;100227.16;4992190;28;6792;-74
2022/04/13 02:33:51;;;;;;;;;;;;;;;17.99;43.47;100222.91;4974366;28;6975;-74
2022/04/13 02:36:17;;;;;;;;;;;;;;;18.03;43.18;100234.19;4992628;28;6808;-74
2022/04/13 02:38:42;;;;;;;;;;;;;;;18.06;43.37;100229.13;4990675;28;6958;-74
2022/04/13 02:41:08;;;;;;;;;;;;;;;18.12;43.31;100236.97;4993845;28;6835;-74
2022/04/13 02:43:34;;;;;;;;;;;;;;;18.14;43.05;100240.44;5007930;28;6962;-74
2022/04/13 02:46:00;;;;;;;;;;;;;;;18.14;43.31;100235.25;4986726;28;6784;-75
2022/04/13 02:48:25;;;;;;;;;;;;;;;18.17;42.90;100244.81;4982479;28;6815;-75
2022/04/13 02:50:52;;;;;;;;;;;;;;;18.18;43.27;100247.44;4977586;28;6887;-76
2022/04/13 02:53:18;;;;;;;;;;;;;;;18.21;43.12;100245.72;4962235;28;6883;-76
2022/04/13 02:55:44;;;;;;;;;;;;;;;18.22;43.40;100242.28;4977818;28;6820;-76
2022/04/13 02:58:10;;;;;;;;;;;;;;;18.24;43.56;100243.16;4981279;28;6768;-76
2022/04/13 03:00:36;;;;;;;;;;;;;;;18.27;43.67;100251.00;4963950;28;6870;-76
2022/04/13 03:03:02;;;;;;;;;;;;;;;18.30;43.47;100248.44;4979235;28;6788;-76
2022/04/13 03:05:29;;;;;;;;;;;;;;;18.33;43.60;100248.47;4977180;28;7434;-76
2022/04/13 03:07:55;;;;;;;;;;;;;;;18.34;43.21;100251.97;4952572;28;7121;-76
2022/04/13 03:10:21;;;;;;;;;;;;;;;18.37;43.17;100257.19;4973546;28;6899;-75
2022/04/13 03:12:47;;;;;;;;;;;;;;;18.38;44.09;100267.59;4982400;28;8034;-75
2022/04/13 03:15:14;;;;;;;;;;;;;;;18.38;43.80;100265.00;4996285;28;6811;-75
2022/04/13 03:17:39;;;;;;;;;;;;;;;18.39;44.23;100261.53;4981827;28;6876;-75
2022/04/13 03:20:06;;;;;;;;;;;;;;;18.41;44.20;100264.19;4969292;28;6930;-75
2022/04/13 03:22:32;;;;;;;;;;;;;;;18.41;44.07;100270.22;4999126;28;6871;-75
2022/04/13 03:25:02;;;;;;;;;;;;;;;18.42;43.77;100269.38;4981059;28;6887;-75
2022/04/13 03:27:28;;;;;;;;;;;;;;;18.41;43.97;100264.19;4979985;28;6880;-75
2022/04/13 03:29:54;;;;;;;;;;;;;;;18.42;44.19;100271.09;4978387;28;7724;-75
2022/04/13 03:32:20;;;;;;;;;;;;;;;18.40;44.10;100268.47;4982897;28;6968;-75
2022/04/13 03:34:45;;;;;;;;;;;;;;;18.40;43.79;100273.66;4985793;28;6820;-75
2022/04/13 03:37:11;;;;;;;;;;;;;;;18.39;44.36;100271.91;4983204;28;6791;-75
2022/04/13 03:39:37;;;;;;;;;;;;;;;18.37;44.14;100271.03;4967520;28;6926;-76
2022/04/13 03:42:03;;;;;;;;;;;;;;;18.36;44.22;100271.91;4979727;28;6783;-75
2022/04/13 03:44:28;;;;;;;;;;;;;;;18.34;44.29;100278.75;4979569;28;6987;-76
2022/04/13 03:46:54;;;;;;;;;;;;;;;18.32;44.74;100275.28;4982188;28;7058;-74
2022/04/13 03:49:20;;;;;;;;;;;;;;;18.28;44.18;100270.91;4976923;28;7863;-74
2022/04/13 03:51:46;;;;;;;;;;;;;;;18.23;44.78;100270.84;4965708;28;7145;-75
2022/04/13 03:54:12;;;;;;;;;;;;;;;18.18;44.90;100272.47;4985363;28;7894;-75
2022/04/13 03:56:38;;;;;;;;;;;;;;;18.12;44.49;100265.47;4980789;28;7083;-75
2022/04/13 03:59:07;;;;;;;;;;;;;;;18.10;44.66;100276.69;4985584;28;6823;-75
2022/04/13 04:01:34;;;;;;;;;;;;;;;18.06;44.96;100273.19;4980920;28;6840;-75
2022/04/13 04:03:59;;;;;;;;;;;;;;;18.02;44.69;100276.53;4958708;28;7364;-75
2022/04/13 04:06:25;;;;;;;;;;;;;;;17.99;45.18;100282.53;4979412;28;7224;-75
2022/04/13 04:08:51;;;;;;;;;;;;;;;17.98;44.86;100275.63;4983595;28;7225;-75
2022/04/13 04:11:18;;;;;;;;;;;;;;;17.97;44.92;100273.03;4984907;28;7183;-75
2022/04/13 04:13:44;;;;;;;;;;;;;;;17.95;44.98;100272.09;4978041;28;8141;-76
2022/04/13 04:16:10;;;;;;;;;;;;;;;17.93;45.06;100279.88;4976755;28;6812;-76
2022/04/13 04:18:36;;;;;;;;;;;;;;;17.88;45.24;100274.63;4984646;28;6954;-76
2022/04/13 04:21:02;;;;;;;;;;;;;;;17.84;45.40;100282.31;4983043;28;7282;-76
2022/04/13 04:23:27;;;;;;;;;;;;;;;17.79;45.73;100284.84;5001126;28;6983;-76
2022/04/13 04:25:53;;;;;;;;;;;;;;;17.73;45.46;100284.72;4984188;28;6894;-76
2022/04/13 04:28:18;;;;;;;;;;;;;;;17.70;45.75;100290.72;4998691;28;6890;-76
2022/04/13 04:30:44;;;;;;;;;;;;;;;17.66;45.63;100288.94;4981605;28;6875;-76
2022/04/13 04:33:15;;;;;;;;;;;;;;;17.61;45.62;100288.84;4982987;28;7147;-76
2022/04/13 04:35:46;;;;;;;;;;;;;;;17.59;45.98;100290.56;4966686;28;6815;-76
2022/04/13 04:38:13;;;;;;;;;;;;;;;17.55;45.89;100296.50;4984324;28;6799;-76
2022/04/13 04:40:39;;;;;;;;;;;;;;;17.50;45.99;100298.16;4984396;28;6804;-76
2022/04/13 04:43:05;;;;;;;;;;;;;;;17.43;46.18;100296.28;4997233;28;6950;-75
2022/04/13 04:45:31;;;;;;;;;;;;;;;17.37;46.27;100302.25;4982556;28;7196;-75
2022/04/13 04:48:04;;;;;;;;;;;;;;;17.31;46.06;100315.97;4982557;28;6918;-75
2022/04/13 04:50:30;;;;;;;;;;;;;;;17.26;45.98;100325.34;4984060;28;6892;-75
2022/04/13 04:52:56;;;;;;;;;;;;;;;17.21;46.26;100326.97;4975346;28;6990;-75
2022/04/13 04:55:22;;;;;;;;;;;;;;;17.14;46.45;100328.59;4984316;28;6808;-75
2022/04/13 04:57:48;;;;;;;;;;;;;;;17.09;46.62;100332.78;4998007;28;7206;-75
2022/04/13 05:00:18;;;;;;;;;;;;;;;17.03;47.08;100333.53;4981360;28;6796;-75
2022/04/13 05:02:47;;;;;;;;;;;;;;;16.98;47.13;100345.47;4982030;28;6807;-75
2022/04/13 05:05:14;;;;;;;;;;;;;;;16.92;47.09;100341.03;4978729;28;7449;-75
2022/04/13 05:07:40;;;;;;;;;;;;;;;16.89;47.46;100335.81;4982591;28;6796;-75
2022/04/13 05:10:07;;;;;;;;;;;;;;;16.85;47.40;100333.13;4965454;28;7225;-75
2022/04/13 05:12:45;;;;;;;;;;;;;;;16.84;47.42;100341.72;4983454;28;6796;-75
2022/04/13 05:15:13;;;;;;;;;;;;;;;16.79;47.62;100339.91;4981505;28;6808;-75
2022/04/13 05:17:39;;;;;;;;;;;;;;;16.77;47.63;100341.59;4998579;28;6800;-75
2022/04/13 05:20:07;;;;;;;;;;;;;;;16.76;47.99;100346.75;4979238;28;6808;-75
2022/04/13 05:22:33;;;;;;;;;;;;;;;16.73;48.18;100349.25;4941517;28;6999;-75
2022/04/13 05:25:09;;;;;;;;;;;;;;;16.73;48.11;100359.59;4967371;28;6973;-75
2022/04/13 05:27:35;;;;;;;;;;;;;;;16.72;48.05;100361.34;4985976;28;6991;-75
2022/04/13 05:30:03;;;;;;;;;;;;;;;16.72;48.06;100363.91;4986308;28;6792;-75
2022/04/13 05:32:30;;;;;;;;;;;;;;;16.74;48.18;100367.41;4985739;28;7316;-75
2022/04/13 05:35:03;;;;;;;;;;;;;;;16.76;47.86;100376.06;4983579;28;6836;-75
2022/04/13 05:37:29;;;;;;;;;;;;;;;16.77;48.79;100383.00;4985389;28;7199;-75
2022/04/13 05:39:54;;;;;;;;;;;;;;;16.82;48.71;100382.25;4980504;28;6796;-76
2022/04/13 05:42:24;;;;;;;;;;;;;;;16.86;48.58;100389.22;4954933;28;6788;-76
2022/04/13 05:44:51;;;;;;;;;;;;;;;16.91;48.45;100390.22;4975023;28;7110;-76
2022/04/13 05:47:17;;;;;;;;;;;;;;;16.96;48.55;100395.50;4955314;28;6811;-75
2022/04/13 05:49:44;;;;;;;;;;;;;;;17.00;48.81;100397.28;4981733;28;6796;-75
2022/04/13 05:52:10;;;;;;;;;;;;;;;17.05;48.43;100400.91;4975863;28;7015;-75
2022/04/13 05:54:35;;;;;;;;;;;;;;;17.11;48.76;100402.75;4960994;28;7024;-75
2022/04/13 05:57:02;;;;;;;;;;;;;;;17.18;49.05;100399.41;4967436;28;6862;-75
2022/04/13 05:59:31;;;;;;;;;;;;;;;17.26;48.72;100403.03;4982361;28;7545;-75
2022/04/13 06:01:56;;;;;;;;;;;;;;;17.33;48.91;100399.75;4982498;28;6796;-75
2022/04/13 06:04:23;;;;;;;;;;;;;;;17.43;48.90;100398.22;4998362;28;7256;-75
2022/04/13 06:06:50;;;;;;;;;;;;;;;17.54;48.87;100393.22;4982478;28;6831;-75
2022/04/13 06:09:15;;;;;;;;;;;;;;;17.63;48.61;100390.81;4996823;28;7027;-75
2022/04/13 06:11:41;;;;;;;;;;;;;;;17.77;48.42;100392.81;4966030;28;7027;-75
2022/04/13 06:14:07;;;;;;;;;;;;;;;17.90;48.37;100396.47;4981070;28;7259;-75
2022/04/13 06:16:32;;;;;;;;;;;;;;;18.03;48.66;100390.69;4982690;28;6807;-75
2022/04/13 06:18:58;;;;;;;;;;;;;;;18.16;48.07;100399.56;4981298;28;6800;-75
2022/04/13 06:21:24;;;;;;;;;;;;;;;18.27;48.32;100402.31;4980890;28;7247;-75
2022/04/13 06:23:50;;;;;;;;;;;;;;;18.35;48.38;100405.06;4982679;28;6875;-75
2022/04/13 06:26:17;;;;;;;;;;;;;;;18.44;48.01;100405.19;4984161;28;7232;-75
2022/04/13 06:28:43;;;;;;;;;;;;;;;18.56;48.17;100420.06;4982705;28;6819;-75
2022/04/13 06:31:09;;;;;;;;;;;;;;;18.64;47.52;100419.31;4979879;28;6804;-75
2022/04/13 06:33:35;;;;;;;;;;;;;;;18.69;47.26;100418.53;4979765;28;6969;-75
2022/04/13 06:36:01;;;;;;;;;;;;;;;18.74;47.53;100423.81;4979329;28;6787;-75
2022/04/13 06:38:27;;;;;;;;;;;;;;;18.78;47.34;100425.56;4974868;28;7058;-75
2022/04/13 06:40:53;;;;;;;;;;;;;;;18.81;47.20;100433.44;4979482;28;8047;-75
2022/04/13 06:43:18;;;;;;;;;;;;;;;18.83;47.23;100429.13;4981157;28;6803;-75
2022/04/13 06:45:44;;;;;;;;;;;;;;;18.86;47.06;100433.50;4978330;28;6792;-75
2022/04/13 06:48:10;;;;;;;;;;;;;;;18.86;47.03;100433.50;4980495;28;7251;-75
2022/04/13 06:50:36;;;;;;;;;;;;;;;18.88;47.56;100431.78;4979167;28;6795;-75
2022/04/13 06:53:01;;;;;;;;;;;;;;;18.92;46.87;100430.97;4984085;28;6787;-75
2022/04/13 06:55:27;;;;;;;;;;;;;;;18.97;46.99;100429.31;4966189;28;7237;-75
2022/04/13 06:57:53;;;;;;;;;;;;;;;19.05;46.85;100439.00;4983995;28;6887;-75
2022/04/13 07:00:19;;;;;;;;;;;;;;;19.11;47.37;100439.06;4982509;28;6957;-75
2022/04/13 07:02:44;;;;;;;;;;;;;;;19.18;46.90;100447.81;4984377;28;6795;-75
2022/04/13 07:05:11;;;;;;;;;;;;;;;19.25;47.22;100455.72;4967997;28;7158;-75
2022/04/13 07:07:37;;;;;;;;;;;;;;;19.34;46.85;100457.53;4986401;28;7015;-75
2022/04/13 07:10:04;;;;;;;;;;;;;;;19.43;47.15;100462.84;5002607;28;6835;-75
2022/04/13 07:12:38;;;;;;;;;;;;;;;19.55;46.76;100462.13;4986966;28;7625;-75
2022/04/13 07:15:04;;;;;;;;;;;;;;;19.67;47.01;100456.22;4984892;28;7164;-75
2022/04/13 07:17:30;;;;;;;;;;;;;;;19.83;47.18;100462.47;4983462;28;9084;-75
2022/04/13 07:19:56;;;;;;;;;;;;;;;19.95;46.63;100460.88;4969708;28;6892;-75
2022/04/13 07:22:22;;;;;;;;;;;;;;;20.04;46.50;100465.28;4985683;28;6796;-75
2022/04/13 07:24:47;;;;;;;;;;;;;;;20.11;45.67;100467.09;4978425;28;6796;-76
2022/04/13 07:27:13;;;;;;;;;;;;;;;20.22;46.29;100462.00;4983340;28;7245;-76
2022/04/13 07:29:39;;;;;;;;;;;;;;;20.31;45.78;100456.00;4983740;28;7065;-76
2022/04/13 07:32:06;;;;;;;;;;;;;;;20.38;45.86;100458.69;4984002;28;6964;-76
2022/04/13 07:34:33;;;;;;;;;;;;;;;20.50;45.79;100467.44;4982617;28;7002;-76
2022/04/13 07:36:58;;;;;;;;;;;;;;;20.61;45.79;100468.41;4985040;28;6950;-76
2022/04/13 07:39:24;;;;;;;;;;;;;;;20.73;46.13;100464.13;4984245;28;7097;-76
2022/04/13 07:41:50;;;;;;;;;;;;;;;20.83;45.64;100467.72;4983030;28;7161;-76
2022/04/13 07:44:16;;;;;;;;;;;;;;;20.93;45.54;100470.38;4980605;28;6804;-76
2022/04/13 07:46:41;;;;;;;;;;;;;;;21.00;45.29;100473.03;4967712;28;7036;-75
2022/04/13 07:49:08;;;;;;;;;;;;;;;21.06;45.43;100475.69;4982181;28;6796;-75
2022/04/13 07:51:34;;;;;;;;;;;;;;;21.13;45.38;100482.66;5002003;28;6815;-75
2022/04/13 07:54:01;;;;;;;;;;;;;;;21.26;44.81;100478.38;4957196;28;6971;-75
2022/04/13 07:56:28;;;;;;;;;;;;;;;21.41;45.02;100477.59;5000466;28;7024;-75
2022/04/13 07:58:54;;;;;;;;;;;;;;;21.56;44.64;100476.78;4983011;28;7158;-76
2022/04/13 08:01:20;;;;;;;;;;;;;;;21.72;44.79;100488.16;4984725;28;7101;-76
2022/04/13 08:03:45;;;;;;;;;;;;;;;21.89;44.65;100485.63;4999355;28;6929;-76
2022/04/13 08:06:11;;;;;;;;;;;;;;;22.10;44.14;100486.53;4985969;28;6815;-76
2022/04/13 08:08:40;;;;;;;;;;;;;;;22.31;44.01;100488.31;4986129;28;7178;-76
2022/04/13 08:11:06;;;;;;;;;;;;;;;22.51;43.64;100489.19;4985524;28;6819;-76
2022/04/13 08:13:33;;;;;;;;;;;;;;;22.65;43.71;100497.03;5000403;28;8122;-76
2022/04/13 08:15:59;;;;;;;;;;;;;;;22.75;43.48;100496.16;5001217;28;6811;-76
2022/04/13 08:18:25;;;;;;;;;;;;;;;22.82;43.15;100499.63;5005105;28;6799;-76
2022/04/13 08:20:50;;;;;;;;;;;;;;;22.83;42.98;100507.47;4951365;28;8375;-76
2022/04/13 08:23:16;;;;;;;;;;;;;;;22.85;42.87;100513.56;4985980;28;6878;-76
2022/04/13 08:25:42;;;;;;;;;;;;;;;22.88;42.86;100516.16;4984925;28;6957;-76
2022/04/13 08:28:08;;;;;;;;;;;;;;;22.85;42.25;100503.09;4969801;28;6986;-76
2022/04/13 08:30:34;;;;;;;;;;;;;;;22.83;42.49;100514.41;4967092;28;6796;-76
2022/04/13 08:33:00;;;;;;;;;;;;;;;22.79;42.55;100513.59;4957460;28;6812;-76
2022/04/13 08:35:26;;;;;;;;;;;;;;;22.79;42.61;100521.41;4984100;28;6788;-76
2022/04/13 08:37:52;;;;;;;;;;;;;;;22.77;43.05;100517.06;4985634;28;6800;-76
2022/04/13 08:40:20;;;;;;;;;;;;;;;22.75;42.74;100519.66;4984225;28;6788;-76
2022/04/13 08:43:09;;;;;;;;;;;;;;;22.69;42.30;100519.66;4984473;28;8647;-76
2022/04/13 08:45:46;;;;;;;;;;;;;;;22.64;42.69;100516.19;4974225;28;6812;-76
2022/04/13 08:48:18;;;;;;;;;;;;;;;22.60;42.93;100521.41;4993695;28;7216;-76
2022/04/13 08:50:45;;;;;;;;;;;;;;;22.57;43.26;100524.00;4982038;28;7489;-76
2022/04/13 08:53:17;;;;;;;;;;;;;;;22.52;42.64;100528.38;4981364;28;6973;-76
2022/04/13 08:55:53;;;;;;;;;;;;;;;22.48;43.23;100530.09;4984259;28;8123;-76
2022/04/13 08:58:47;;;;;;;;;;;;;;;22.48;42.72;100531.81;4982800;28;6808;-76
2022/04/13 09:01:41;;;;;;;;;;;;;;;22.52;43.21;100536.22;4980817;28;6815;-76
2022/04/13 09:04:11;;;;;;;;;;;;;;;22.61;42.98;100540.56;4979481;28;6823;-76
2022/04/13 09:06:40;;;;;;;;;;;;;;;22.69;43.36;100537.94;4981417;28;6820;-76
2022/04/13 09:09:28;;;;;;;;;;;;;;;22.82;42.83;100537.09;4980916;28;6957;-76
2022/04/13 09:11:58;;;;;;;;;;;;;;;22.95;42.06;100539.69;4983836;28;7026;-76
2022/04/13 09:14:28;;;;;;;;;;;;;;;23.08;42.23;100545.75;4965542;28;6986;-76
2022/04/13 09:16:56;;;;;;;;;;;;;;;23.22;42.02;100545.75;4982538;28;6827;-76
2022/04/13 09:19:25;;;;;;;;;;;;;;;23.31;42.32;100550.97;4964932;28;9478;-76
2022/04/13 09:21:59;;;;;;;;;;;;;;;23.40;41.66;100540.50;4982572;28;7043;-76
2022/04/13 09:24:27;;;;;;;;;;;;;;;23.54;41.82;100547.41;4965581;28;6999;-76
2022/04/13 09:26:54;;;;;;;;;;;;;;;23.69;42.13;100555.22;4980854;28;7868;-76
2022/04/13 09:29:20;;;;;;;;;;;;;;;23.89;41.83;100549.03;4981234;28;6943;-76
2022/04/13 09:31:46;;;;;;;;;;;;;;;24.10;41.17;100555.06;4980633;28;6784;-76
2022/04/13 09:34:12;;;;;;;;;;;;;;;24.27;41.56;100544.47;4983209;28;6942;-76
2022/04/13 09:36:38;;;;;;;;;;;;;;;24.49;41.08;100542.56;4981018;28;7231;-76
2022/04/13 09:39:04;;;;;;;;;;;;;;;24.84;40.82;100558.06;4981391;28;6791;-76
2022/04/13 09:41:36;;;;;;;;;;;;;;;25.37;40.67;100555.78;4981827;28;6800;-76
2022/04/13 09:44:14;;;;;;;;;;;;;;;26.22;39.82;100556.53;4984725;28;7228;-76
2022/04/13 09:46:42;;;;;;;;;;;;;;;26.99;38.62;100545.66;4980591;28;6836;-76
2022/04/13 09:49:17;;;;;;;;;;;;;;;27.68;37.45;100551.38;4982448;28;7883;-76
2022/04/13 09:51:48;;;;;;;;;;;;;;;28.00;37.27;100554.19;4981445;28;6966;-76
2022/04/13 09:54:14;;;;;;;;;;;;;;;27.97;36.49;100551.66;5000020;28;6849;-75
2022/04/13 09:56:49;;;;;;;;;;;;;;;27.88;35.95;100559.75;4982379;28;6796;-75
2022/04/13 09:59:30;;;;;;;;;;;;;;;27.85;35.55;100556.28;4982732;28;7211;-75
2022/04/13 10:01:58;;;;;;;;;;;;;;;27.94;35.34;100555.22;4978443;28;7568;-75
2022/04/13 10:04:29;;;;;;;;;;;;;;;28.13;35.36;100547.78;4976731;28;6816;-74
2022/04/13 10:07:12;;;;;;;;;;;;;;;28.64;34.70;100544.88;4997218;28;7931;-75
2022/04/13 10:09:38;;;;;;;;;;;;;;;29.21;34.32;100539.84;4980732;28;6816;-75
2022/04/13 10:12:04;;;;;;;;;;;;;;;29.33;34.60;100539.53;4944281;28;7062;-75
2022/04/13 10:14:31;;;;;;;;;;;;;;;28.99;34.00;100545.72;4996729;28;6816;-75
2022/04/13 10:17:16;;;;;;;;;;;;;;;28.55;34.07;100551.22;4980621;28;7187;-75
2022/04/13 10:19:54;;;;;;;;;;;;;;;28.29;34.40;100555.34;4962873;28;7055;-75
2022/04/13 10:22:20;;;;;;;;;;;;;;;28.26;34.27;100558.94;4979684;28;8494;-75
2022/04/13 10:24:46;;;;;;;;;;;;;;;28.47;34.43;100547.91;4997228;28;6792;-75
2022/04/13 10:27:19;;;;;;;;;;;;;;;29.01;34.14;100543.06;4981754;28;7019;-75
2022/04/13 10:29:49;;;;;;;;;;;;;;;29.57;33.25;100546.84;4982032;28;7251;-75
2022/04/13 10:32:18;;;;;;;;;;;;;;;29.97;31.94;100540.34;4978474;28;7873;-75
2022/04/13 10:34:50;;;;;;;;;;;;;;;30.06;31.33;100545.38;4964163;28;6998;-75
2022/04/13 10:37:20;;;;;;;;;;;;;;;29.98;31.52;100546.47;4982449;28;7026;-75
2022/04/13 10:39:47;;;;;;;;;;;;;;;29.80;32.03;100546.16;4982565;28;6804;-75
2022/04/13 10:42:17;;;;;;;;;;;;;;;29.78;32.31;100548.81;4977300;28;6803;-75
2022/04/13 10:44:55;;;;;;;;;;;;;;;30.01;31.51;100551.69;4979996;28;7214;-75
2022/04/13 10:47:52;;;;;;;;;;;;;;;29.93;31.93;100555.41;4982565;28;6970;-75
2022/04/13 10:50:37;;;;;;;;;;;;;;;29.75;31.53;100555.97;4979325;28;6895;-75
2022/04/13 10:53:20;;;;;;;;;;;;;;;29.52;31.74;100558.38;4996708;28;6831;-75
2022/04/13 10:56:02;;;;;;;;;;;;;;;29.13;32.28;100558.56;4998145;28;7431;-75
2022/04/13 10:58:52;;;;;;;;;;;;;;;28.92;32.35;100559.97;4984109;28;6812;-76
2022/04/13 11:01:23;;;;;;;;;;;;;;;29.17;32.83;100562.84;4978651;28;7266;-76
2022/04/13 11:03:49;;;;;;;;;;;;;;;29.55;32.30;100573.25;4997162;28;6803;-76
2022/04/13 11:06:15;;;;;;;;;;;;;;;30.04;32.01;100570.94;4980468;28;6795;-75
2022/04/13 11:09:02;;;;;;;;;;;;;;;30.53;31.95;100565.03;4982880;28;6882;-75
2022/04/13 11:11:31;;;;;;;;;;;;;;;31.08;31.41;100566.72;4977688;28;7306;-75
2022/04/13 11:13:57;;;;;;;;;;;;;;;31.76;31.29;100570.47;4983905;28;6896;-75
2022/04/13 11:16:27;;;;;;;;;;;;;;;32.27;29.92;100573.81;4979825;28;6800;-75
2022/04/13 11:19:05;;;;;;;;;;;;;;;32.35;29.18;100565.56;4966876;28;6820;-75
2022/04/13 11:21:55;;;;;;;;;;;;;;;32.12;29.39;100573.53;4995424;28;7011;-75
2022/04/13 11:24:35;;;;;;;;;;;;;;;31.57;29.75;100568.53;4983623;28;6888;-76
2022/04/13 11:27:03;;;;;;;;;;;;;;;31.18;29.81;100573.41;4980487;28;7252;-76
2022/04/13 11:29:37;;;;;;;;;;;;;;;30.82;30.08;100579.09;4966532;28;7009;-76
2022/04/13 11:32:04;;;;;;;;;;;;;;;30.54;30.49;100580.00;4979170;28;6800;-76
2022/04/13 11:34:49;;;;;;;;;;;;;;;30.20;30.09;100578.41;4982978;28;6889;-76
2022/04/13 11:37:25;;;;;;;;;;;;;;;29.95;30.87;100584.44;4978277;28;7658;-75
2022/04/13 11:39:57;;;;;;;;;;;;;;;29.97;31.17;100579.97;4949886;28;8420;-73
2022/04/13 11:42:24;;;;;;;;;;;;;;;30.15;31.45;100580.34;4999725;28;6815;-73
2022/04/13 11:45:15;;;;;;;;;;;;;;;30.54;30.93;100577.34;4983402;28;6910;-73
2022/04/13 11:47:53;;;;;;;;;;;;;;;30.98;29.87;100573.25;4982285;28;7001;-74
2022/04/13 11:50:20;;;;;;;;;;;;;;;31.32;29.46;100577.41;4982143;28;7160;-74
2022/04/13 11:52:53;;;;;;;;;;;;;;;31.35;29.57;100573.78;4984669;28;7107;-74
2022/04/13 11:55:39;;;;;;;;;;;;;;;31.08;29.57;100574.66;4986315;28;6891;-74
2022/04/13 11:58:08;;;;;;;;;;;;;;;30.80;29.11;100572.97;4984949;28;6807;-74
2022/04/13 12:00:54;;;;;;;;;;;;;;;30.55;29.93;100579.06;5000468;28;6796;-74
2022/04/13 12:03:35;;;;;;;;;;;;;;;30.75;29.82;100575.78;4985873;28;6803;-74
2022/04/13 12:06:10;;;;;;;;;;;;;;;31.23;29.80;100575.94;4985712;28;6965;-74
2022/04/13 12:08:38;;;;;;;;;;;;;;;31.48;28.58;100576.81;4965417;28;7157;-74
2022/04/13 12:11:19;;;;;;;;;;;;;;;31.27;28.80;100569.63;4982234;28;7011;-74
2022/04/13 12:13:59;;;;;;;;;;;;;;;30.96;29.21;100573.34;4986032;28;6896;-74
2022/04/13 12:16:33;;;;;;;;;;;;;;;30.72;29.29;100575.03;4964957;28;7098;-74
2022/04/13 12:19:03;;;;;;;;;;;;;;;30.49;29.84;100568.69;4952992;28;7945;-74
2022/04/13 12:21:32;;;;;;;;;;;;;;;30.26;30.18;100578.22;4982398;28;6815;-74
2022/04/13 12:24:04;;;;;;;;;;;;;;;30.03;30.07;100574.47;4984360;28;6819;-74
2022/04/13 12:26:38;;;;;;;;;;;;;;;29.73;30.28;100578.94;4982028;28;7156;-73
2022/04/13 12:29:18;;;;;;;;;;;;;;;29.41;30.51;100573.63;4968339;28;6916;-73
2022/04/13 12:31:49;;;;;;;;;;;;;;;29.19;30.58;100579.50;4981778;28;7699;-73
2022/04/13 12:34:27;;;;;;;;;;;;;;;29.08;30.88;100571.88;4984691;28;6819;-74
2022/04/13 12:36:59;;;;;;;;;;;;;;;29.05;31.11;100573.72;4966551;28;7282;-74
2022/04/13 12:39:44;;;;;;;;;;;;;;;29.06;31.14;100578.06;4985351;28;6812;-74
2022/04/13 12:42:22;;;;;;;;;;;;;;;29.06;31.33;100584.25;4982129;28;7065;-74
2022/04/13 12:44:48;;;;;;;;;;;;;;;29.02;31.49;100587.00;4983600;28;7295;-74
2022/04/13 12:47:14;;;;;;;;;;;;;;;28.94;31.85;100588.06;4966296;28;6827;-74
2022/04/13 12:49:39;;;;;;;;;;;;;;;28.96;31.96;100588.88;4978953;28;6800;-74
2022/04/13 12:52:07;;;;;;;;;;;;;;;29.12;31.66;100593.75;4979290;28;7127;-73
2022/04/13 12:54:33;;;;;;;;;;;;;;;29.31;31.44;100588.00;4981675;28;6815;-73
2022/04/13 12:57:01;;;;;;;;;;;;;;;29.33;31.48;100594.97;4998268;28;7294;-73